Archiv-/Tagesdaten

--Timestamp---	Temp	Chill	HIndex	Humid	Dewpt	 Wind 	HiWind	WindDir	Rain 	Barom	Solar	 ET  	 UV 
--------------	----	-----	------	-----	-----	------	------	-------	-----	-----	-----	-----	----
20260507 00:00	10.9	10.9	10.9	82	8.0	8	23	202	0.0	1008.5	0	0.025	0.0
20260507 00:05	10.9	10.9	10.9	82	8.0	8	18	225	0.0	1008.5	0	0.000	0.0
20260507 00:10	10.9	10.9	10.9	82	8.0	8	18	202	0.0	1008.6	0	0.000	0.0
20260507 00:15	11.1	11.1	11.1	81	7.9	10	19	202	0.0	1008.5	0	0.000	0.0
20260507 00:20	11.1	11.1	11.1	81	7.9	8	14	225	0.0	1008.5	0	0.000	0.0
20260507 00:25	11.1	11.1	11.1	81	7.9	6	14	225	0.0	1008.6	0	0.000	0.0
20260507 00:30	11.1	11.1	11.1	81	7.9	6	16	225	0.0	1008.6	0	0.000	0.0
20260507 00:35	11.1	11.1	11.1	81	8.0	10	21	225	0.0	1008.6	0	0.000	0.0
20260507 00:40	11.2	11.2	11.2	81	8.0	10	21	202	0.0	1008.6	0	0.000	0.0
20260507 00:45	11.2	11.2	11.2	81	8.0	8	18	202	0.0	1008.7	0	0.000	0.0
20260507 00:50	11.2	11.2	11.2	81	8.0	8	16	202	0.0	1008.7	0	0.000	0.0
20260507 00:55	11.2	11.2	11.2	81	8.0	10	23	202	0.0	1008.7	0	0.000	0.0
20260507 01:00	11.2	11.2	11.2	81	8.0	10	23	225	0.0	1008.7	0	0.025	0.0
20260507 01:05	11.1	11.1	11.1	81	8.0	8	18	225	0.0	1008.5	0	0.000	0.0
20260507 01:10	11.1	11.1	11.1	81	7.9	8	18	202	0.0	1008.6	0	0.000	0.0
20260507 01:15	10.9	10.9	10.9	82	8.0	6	16	225	0.0	1008.6	0	0.000	0.0
20260507 01:20	10.9	10.9	10.9	82	7.9	6	14	225	0.0	1008.6	0	0.000	0.0
20260507 01:25	10.9	10.9	10.9	82	7.9	6	18	225	0.0	1008.6	0	0.000	0.0
20260507 01:30	10.9	10.9	10.9	82	7.9	8	19	225	0.0	1008.6	0	0.000	0.0
20260507 01:35	10.9	10.9	10.9	81	7.8	8	19	225	0.0	1008.6	0	0.000	0.0
20260507 01:40	10.9	10.9	10.9	81	7.8	8	16	225	0.0	1008.6	0	0.000	0.0
20260507 01:45	10.9	10.9	10.9	81	7.8	10	23	225	0.0	1008.6	0	0.000	0.0
20260507 01:50	10.9	10.9	10.9	81	7.8	10	21	225	0.0	1008.6	0	0.000	0.0
20260507 01:55	10.9	10.9	10.9	80	7.6	11	26	225	0.0	1008.6	0	0.000	0.0
20260507 02:00	10.9	10.9	10.9	80	7.6	10	18	202	0.0	1008.7	0	0.025	0.0
20260507 02:05	10.9	10.9	10.9	80	7.6	8	21	225	0.0	1008.6	0	0.000	0.0
20260507 02:10	10.9	10.9	10.9	80	7.6	6	19	202	0.0	1008.6	0	0.000	0.0
20260507 02:15	10.9	10.9	10.9	81	7.8	8	16	202	0.0	1008.5	0	0.000	0.0
20260507 02:20	10.9	10.9	10.9	81	7.8	8	18	202	0.0	1008.5	0	0.000	0.0
20260507 02:25	10.8	10.8	10.8	81	7.7	8	19	225	0.0	1008.6	0	0.000	0.0
20260507 02:30	10.8	10.8	10.8	81	7.6	6	16	202	0.0	1008.6	0	0.000	0.0
20260507 02:35	10.7	10.7	10.7	81	7.5	5	13	202	0.0	1008.6	0	0.000	0.0
20260507 02:40	10.6	10.6	10.6	81	7.5	5	11	225	0.0	1008.6	0	0.000	0.0
20260507 02:45	10.5	10.5	10.5	82	7.6	5	11	202	0.0	1008.7	0	0.000	0.0
20260507 02:50	10.4	10.4	10.4	82	7.4	3	6	202	0.0	1008.7	0	0.000	0.0
20260507 02:55	10.3	10.3	10.3	83	7.5	2	8	225	0.0	1008.8	0	0.000	0.0
20260507 03:00	10.2	10.2	10.2	83	7.4	3	6	202	0.0	1008.8	0	0.025	0.0
20260507 03:05	10.0	10.0	10.0	83	7.2	2	6	225	0.0	1008.9	0	0.000	0.0
20260507 03:10	9.9	9.9	9.9	84	7.4	2	5	225	0.0	1008.9	0	0.000	0.0
20260507 03:15	9.9	9.9	9.9	84	7.3	2	5	202	0.0	1008.9	0	0.000	0.0
20260507 03:20	9.8	9.8	9.8	84	7.2	2	6	180	0.0	1008.8	0	0.000	0.0
20260507 03:25	9.7	9.7	9.7	84	7.1	2	6	202	0.0	1008.9	0	0.000	0.0
20260507 03:30	9.6	9.6	9.6	84	7.0	2	5	202	0.0	1009.0	0	0.000	0.0
20260507 03:35	9.6	9.6	9.6	84	7.0	3	11	225	0.0	1009.0	0	0.000	0.0
20260507 03:40	9.6	9.6	9.6	84	7.0	5	13	225	0.0	1008.9	0	0.000	0.0
20260507 03:45	9.6	9.6	9.6	84	7.0	3	10	225	0.0	1009.0	0	0.000	0.0
20260507 03:50	9.6	9.6	9.6	84	7.0	5	10	225	0.0	1009.0	0	0.000	0.0
20260507 03:55	9.6	9.6	9.6	84	7.0	5	8	248	0.0	1009.1	0	0.000	0.0
20260507 04:00	9.5	8.8	9.5	85	7.1	6	10	248	0.0	1009.1	0	0.025	0.0
20260507 04:05	9.6	8.9	9.6	84	7.0	6	14	248	0.0	1009.5	0	0.000	0.0
20260507 04:10	9.7	8.7	9.7	84	7.1	8	11	248	0.0	1009.5	0	0.000	0.0
20260507 04:15	9.8	9.1	9.8	84	7.2	6	13	248	0.0	1009.6	0	0.000	0.0
20260507 04:20	9.8	9.8	9.8	84	7.2	5	13	248	0.0	1009.6	0	0.000	0.0
20260507 04:25	9.8	9.8	9.8	84	7.3	3	10	225	0.0	1009.6	0	0.000	0.0
20260507 04:30	9.8	9.8	9.8	84	7.3	3	8	225	0.0	1009.6	0	0.000	0.0
20260507 04:35	9.9	9.9	9.9	84	7.3	5	8	248	0.0	1009.7	0	0.000	0.0
20260507 04:40	9.9	9.9	9.9	84	7.3	5	10	225	0.0	1009.7	0	0.000	0.0
20260507 04:45	9.9	9.2	9.9	83	7.1	6	11	225	0.0	1009.7	0	0.000	0.0
20260507 04:50	9.8	9.2	9.8	83	7.1	6	13	225	0.0	1009.8	0	0.000	0.0
20260507 04:55	9.8	9.8	9.8	83	7.0	5	10	225	0.0	1009.8	0	0.000	0.0
20260507 05:00	9.7	9.7	9.7	83	6.9	5	11	225	0.0	1009.8	0	0.025	0.0
20260507 05:05	9.6	9.6	9.6	84	7.0	5	10	225	0.0	1010.1	0	0.000	0.0
20260507 05:10	9.6	8.9	9.6	84	7.0	6	16	225	0.0	1010.1	0	0.000	0.0
20260507 05:15	9.6	8.9	9.6	83	6.8	6	11	225	0.0	1010.2	0	0.000	0.0
20260507 05:20	9.6	9.6	9.6	84	7.0	5	10	225	0.0	1010.2	0	0.000	0.0
20260507 05:25	9.6	9.6	9.6	84	7.0	5	8	225	0.0	1010.2	0	0.000	0.0
20260507 05:30	9.6	9.6	9.6	84	7.0	3	8	225	0.0	1010.1	0	0.000	0.0
20260507 05:35	9.6	9.6	9.6	84	7.0	3	6	225	0.0	1010.1	0	0.000	0.0
20260507 05:40	9.6	9.6	9.6	84	7.0	2	8	225	0.0	1010.1	0	0.000	0.0
20260507 05:45	9.5	9.5	9.5	84	6.9	2	5	225	0.0	1010.1	0	0.000	0.0
20260507 05:50	9.5	9.5	9.5	84	6.9	2	5	225	0.0	1010.1	0	0.000	0.0
20260507 05:55	9.5	9.5	9.5	84	6.9	2	5	225	0.0	1010.1	4	0.000	0.0
20260507 06:00	9.6	9.6	9.6	84	7.0	2	5	225	0.0	1010.2	10	0.000	0.0
20260507 06:05	9.7	9.7	9.7	84	7.1	3	6	202	0.0	1010.2	11	0.000	0.0
20260507 06:10	9.7	9.7	9.7	84	7.1	2	6	180	0.0	1010.2	13	0.000	0.0
20260507 06:15	9.8	9.8	9.8	84	7.2	2	8	225	0.0	1010.1	15	0.000	0.0
20260507 06:20	9.9	9.9	9.9	84	7.3	2	6	270	0.0	1010.2	16	0.000	0.0
20260507 06:25	10.0	10.0	10.0	84	7.4	5	11	202	0.0	1010.2	16	0.000	0.0
20260507 06:30	10.1	10.1	10.1	84	7.5	5	16	225	0.0	1010.3	17	0.000	0.0
20260507 06:35	10.3	10.3	10.3	83	7.5	5	16	225	0.0	1010.2	19	0.000	0.0
20260507 06:40	10.3	10.3	10.3	83	7.6	3	10	292	0.0	1010.2	21	0.000	0.0
20260507 06:45	10.4	10.4	10.4	83	7.6	5	8	270	0.0	1010.3	23	0.000	0.0
20260507 06:50	10.4	10.4	10.4	83	7.7	5	16	225	0.0	1010.4	26	0.000	0.0
20260507 06:55	10.4	10.4	10.4	83	7.7	5	13	225	0.0	1010.6	34	0.000	0.0
20260507 07:00	10.5	10.5	10.5	83	7.7	5	10	202	0.0	1010.6	42	0.025	0.0
20260507 07:05	10.6	10.6	10.6	83	7.8	5	11	202	0.0	1010.7	37	0.000	0.0
20260507 07:10	10.7	10.7	10.7	83	7.9	5	18	225	0.0	1010.8	33	0.000	0.0
20260507 07:15	10.7	10.7	10.7	83	7.9	6	11	225	0.0	1010.8	35	0.000	0.0
20260507 07:20	10.8	10.8	10.8	82	7.8	6	13	225	0.0	1010.9	36	0.000	0.0
20260507 07:25	10.8	10.8	10.8	82	7.8	8	18	225	0.0	1010.8	35	0.000	0.0
20260507 07:30	10.8	10.8	10.8	82	7.9	6	11	225	0.0	1010.9	41	0.000	0.0
20260507 07:35	10.9	10.9	10.9	82	7.9	8	16	225	0.0	1010.9	50	0.000	0.0
20260507 07:40	10.9	10.9	10.9	82	7.9	8	14	225	0.0	1010.9	68	0.000	0.0
20260507 07:45	11.0	11.0	11.0	82	8.0	6	14	225	0.0	1011.0	88	0.000	0.0
20260507 07:50	11.1	11.1	11.1	82	8.1	6	14	225	0.0	1011.0	117	0.000	0.0
20260507 07:55	11.2	11.2	11.2	82	8.2	13	26	225	0.0	1011.1	127	0.000	0.0
20260507 08:00	11.2	11.2	11.2	81	8.1	10	19	225	0.0	1011.1	113	0.051	0.0
20260507 08:05	11.3	11.3	11.3	81	8.1	11	23	225	0.0	1011.2	114	0.000	0.0
20260507 08:10	11.3	11.3	11.3	80	8.0	11	21	225	0.0	1011.3	148	0.000	0.1
20260507 08:15	11.4	11.4	11.4	80	8.1	10	23	248	0.0	1011.3	95	0.000	0.0
20260507 08:20	11.6	11.6	11.6	79	8.0	11	23	248	0.0	1011.3	123	0.000	0.1
20260507 08:25	11.6	11.6	11.6	78	7.9	11	23	225	0.0	1011.4	116	0.000	0.0
20260507 08:30	11.7	11.7	11.7	78	8.0	13	21	248	0.0	1011.4	119	0.000	0.0
20260507 08:35	11.8	11.8	11.8	77	7.9	11	26	225	0.0	1011.5	123	0.000	0.4
20260507 08:40	11.8	11.8	11.8	77	7.9	14	26	248	0.0	1011.5	171	0.000	0.5
20260507 08:45	12.0	12.0	12.0	76	7.9	16	27	248	0.0	1011.4	178	0.000	0.6
20260507 08:50	12.1	12.1	12.1	76	8.0	14	24	248	0.0	1011.4	198	0.000	0.7
20260507 08:55	12.3	12.3	12.3	76	8.2	11	23	225	0.0	1011.4	410	0.000	0.8
20260507 09:00	12.7	12.7	12.7	76	8.5	11	24	225	0.0	1011.5	507	0.127	0.9
20260507 09:05	13.0	13.0	13.0	74	8.5	14	26	248	0.0	1011.6	533	0.000	1.0
20260507 09:10	13.0	13.0	13.0	74	8.5	16	29	248	0.0	1011.5	475	0.000	1.1
20260507 09:15	13.2	13.2	13.2	74	8.7	13	23	270	0.0	1011.6	425	0.000	0.9
20260507 09:20	13.1	13.1	13.1	73	8.4	16	27	270	0.0	1011.7	195	0.000	0.9
20260507 09:25	12.9	12.9	12.9	73	8.2	16	26	248	0.0	1011.7	183	0.000	0.8
20260507 09:30	12.9	12.9	12.9	73	8.2	14	26	248	0.0	1011.8	178	0.000	0.7
20260507 09:35	12.9	12.9	12.9	73	8.2	10	21	248	0.0	1011.8	196	0.000	0.8
20260507 09:40	12.9	12.9	12.9	73	8.2	14	24	225	0.0	1011.8	213	0.000	0.8
20260507 09:45	13.0	13.0	13.0	73	8.3	14	27	248	0.0	1011.9	205	0.000	0.8
20260507 09:50	13.1	13.1	13.1	73	8.3	13	26	248	0.0	1011.9	191	0.000	0.8
20260507 09:55	13.1	13.1	13.1	74	8.5	13	21	248	0.0	1011.9	231	0.000	1.0
20260507 10:00	13.2	13.2	13.2	72	8.3	13	26	248	0.0	1011.9	461	0.178	1.1
20260507 10:05	13.2	13.2	13.2	74	8.6	10	19	270	0.0	1011.8	203	0.000	1.0
20260507 10:10	13.4	13.4	13.4	73	8.6	10	19	248	0.0	1011.8	265	0.000	1.0
20260507 10:15	13.4	13.4	13.4	72	8.5	10	18	248	0.0	1011.8	201	0.000	1.0
20260507 10:20	13.4	13.4	13.4	71	8.3	13	26	225	0.0	1011.8	215	0.000	1.1
20260507 10:25	13.7	13.7	13.7	71	8.5	14	29	225	0.0	1011.7	288	0.000	1.0
20260507 10:30	13.8	13.8	13.8	70	8.5	18	31	248	0.0	1011.9	173	0.000	0.6
20260507 10:35	13.7	13.7	13.7	71	8.5	14	26	248	0.0	1011.9	130	0.000	0.4
20260507 10:40	13.4	13.4	13.4	72	8.4	14	26	270	0.0	1012.2	73	0.000	0.0
20260507 10:45	13.2	13.2	13.2	72	8.2	11	21	270	0.0	1012.2	42	0.000	0.0
20260507 10:50	12.9	12.9	12.9	73	8.2	14	23	248	0.0	1012.3	50	0.000	0.0
20260507 10:55	12.8	12.8	12.8	73	8.1	13	21	248	0.0	1012.3	73	0.000	0.0
20260507 11:00	12.7	12.7	12.7	74	8.2	11	27	225	0.0	1012.3	106	0.127	0.2
20260507 11:05	12.7	12.7	12.7	73	8.0	16	27	248	0.0	1012.4	273	0.000	1.1
20260507 11:10	13.1	13.1	13.1	73	8.3	14	29	270	0.0	1012.5	245	0.000	1.0
20260507 11:15	13.1	13.1	13.1	72	8.2	16	27	248	0.0	1012.4	267	0.000	1.0
20260507 11:20	13.2	13.2	13.2	71	8.0	16	27	225	0.0	1012.4	295	0.000	1.2
20260507 11:25	13.2	13.2	13.2	71	8.1	18	29	248	0.0	1012.4	304	0.000	1.3
20260507 11:30	13.1	13.1	13.1	72	8.2	19	31	270	0.0	1012.5	188	0.000	0.8
20260507 11:35	12.8	12.8	12.8	72	7.9	18	32	248	0.0	1012.8	110	0.000	0.3
20260507 11:40	12.7	12.7	12.7	72	7.7	19	32	225	0.0	1012.8	89	0.000	0.0
20260507 11:45	12.5	12.5	12.5	72	7.6	18	32	248	0.0	1012.9	128	0.000	0.7
20260507 11:50	12.7	12.7	12.7	73	8.0	11	24	248	0.0	1012.8	184	0.000	0.9
20260507 11:55	12.7	12.7	12.7	72	7.8	18	27	248	0.0	1012.9	172	0.000	0.8
20260507 12:00	12.8	12.8	12.8	71	7.7	18	27	225	0.0	1012.9	198	0.152	0.9
20260507 12:05	12.8	12.8	12.8	73	8.1	21	34	248	0.0	1013.1	275	0.000	1.2
20260507 12:10	12.7	12.7	12.7	75	8.3	18	32	270	0.0	1013.1	373	0.000	1.6
20260507 12:15	12.5	12.5	12.5	76	8.4	16	27	270	0.0	1013.1	355	0.000	1.6
20260507 12:20	12.5	12.5	12.5	77	8.6	16	27	270	0.0	1013.2	475	0.000	2.0
20260507 12:25	12.8	12.8	12.8	75	8.5	13	24	270	0.0	1013.1	675	0.000	2.6
20260507 12:30	13.1	13.1	13.1	75	8.7	11	21	270	0.0	1013.1	827	0.000	3.1
20260507 12:35	13.4	13.4	13.4	75	9.0	10	18	270	0.0	1012.9	954	0.000	3.3
20260507 12:40	13.8	13.8	13.8	73	9.0	10	18	292	0.0	1012.9	1072	0.000	3.0
20260507 12:45	13.8	13.8	13.8	73	9.0	13	23	292	0.0	1012.9	171	0.000	1.1
20260507 12:50	13.6	13.6	13.6	74	9.0	10	21	292	0.0	1012.9	100	0.000	0.3
20260507 12:55	13.4	13.4	13.4	72	8.4	16	29	270	0.0	1012.9	195	0.000	1.1
20260507 13:00	13.6	13.6	13.6	70	8.2	14	24	270	0.0	1012.9	389	0.279	2.0
20260507 13:05	13.9	13.9	13.9	70	8.5	18	26	270	0.0	1012.8	593	0.000	2.6
20260507 13:10	14.3	14.3	14.3	70	8.9	16	27	248	0.0	1012.7	564	0.000	2.1
20260507 13:15	14.4	14.4	14.4	71	9.2	18	29	270	0.0	1012.7	826	0.000	3.2
20260507 13:20	14.5	14.5	14.5	70	9.1	18	27	292	0.0	1012.6	821	0.000	2.9
20260507 13:25	14.6	14.6	14.6	69	9.0	13	24	292	0.0	1012.6	847	0.000	3.1
20260507 13:30	14.8	14.8	14.8	69	9.1	16	31	292	0.0	1012.6	888	0.000	3.2
20260507 13:35	14.7	14.7	14.7	67	8.7	18	26	270	0.0	1012.7	868	0.000	3.4
20260507 13:40	14.9	14.9	14.9	67	8.8	16	26	270	0.0	1012.7	870	0.000	2.9
20260507 13:45	15.2	15.2	15.2	67	9.1	13	24	248	0.0	1012.6	890	0.000	3.3
20260507 13:50	15.6	15.6	15.6	66	9.3	13	23	270	0.0	1012.5	1004	0.000	3.3
20260507 13:55	15.7	15.7	15.7	65	9.1	13	24	292	0.0	1012.6	1016	0.000	2.6
20260507 14:00	15.9	15.9	15.9	66	9.5	11	26	270	0.0	1012.4	761	0.432	2.5
20260507 14:05	15.7	15.7	15.7	65	9.1	14	26	248	0.0	1012.6	410	0.000	2.3
20260507 14:10	15.6	15.6	15.6	65	9.0	13	24	248	0.0	1012.6	275	0.000	1.9
20260507 14:15	15.4	15.4	15.4	66	9.1	13	23	270	0.0	1012.6	305	0.000	1.7
20260507 14:20	15.4	15.4	15.4	66	9.1	11	21	292	0.0	1012.5	496	0.000	2.4
20260507 14:25	15.7	15.7	15.7	67	9.6	10	21	292	0.0	1012.5	363	0.000	1.7
20260507 14:30	15.4	15.4	15.4	66	9.1	16	26	270	0.0	1012.6	295	0.000	1.5
20260507 14:35	15.1	15.1	15.1	66	8.8	14	24	292	0.0	1012.7	329	0.000	1.5
20260507 14:40	15.2	15.2	15.2	67	9.1	13	24	270	0.0	1012.7	305	0.000	1.4
20260507 14:45	15.1	15.1	15.1	67	9.0	14	27	292	0.0	1012.7	281	0.000	1.2
20260507 14:50	15.1	15.1	15.1	67	9.0	13	24	292	0.0	1012.8	366	0.000	1.5
20260507 14:55	15.0	15.0	15.0	68	9.1	13	27	292	0.0	1012.8	283	0.000	1.3
20260507 15:00	14.8	14.8	14.8	69	9.1	13	26	292	0.0	1012.9	306	0.254	1.3
20260507 15:05	14.9	14.9	14.9	69	9.3	10	19	292	0.0	1012.9	428	0.000	1.6
20260507 15:10	15.1	15.1	15.1	68	9.2	13	23	292	0.0	1012.9	445	0.000	1.8
20260507 15:15	15.2	15.2	15.2	70	9.8	10	19	292	0.0	1012.8	490	0.000	1.9
20260507 15:20	15.6	15.6	15.6	70	10.1	3	14	292	0.0	1012.9	465	0.000	1.7
20260507 15:25	15.9	15.9	15.9	68	10.0	5	11	292	0.0	1012.7	795	0.000	2.3
20260507 15:30	16.2	16.2	16.2	66	9.9	6	21	270	0.0	1012.7	380	0.000	1.6
20260507 15:35	16.0	16.0	16.0	66	9.6	5	10	248	0.0	1012.7	280	0.000	1.3
20260507 15:40	15.6	15.6	15.6	66	9.3	8	18	292	0.0	1012.9	346	0.000	1.4
20260507 15:45	15.8	15.8	15.8	69	10.2	8	19	292	0.0	1012.7	438	0.000	1.6
20260507 15:50	16.3	16.3	16.3	69	10.6	3	18	270	0.0	1012.6	784	0.000	2.3
20260507 15:55	16.9	16.9	16.9	66	10.5	6	18	315	0.0	1012.7	684	0.000	1.9
20260507 16:00	16.6	16.6	16.6	66	10.2	10	18	292	0.0	1012.7	521	0.305	1.7
20260507 16:05	16.3	16.3	16.3	66	10.0	10	24	292	0.0	1012.7	547	0.000	1.7
20260507 16:10	16.3	16.3	16.3	66	10.0	3	14	270	0.0	1012.7	378	0.000	1.4
20260507 16:15	16.4	16.4	16.4	67	10.3	3	8	0	0.0	1012.7	414	0.000	1.4
20260507 16:20	16.2	16.2	16.2	66	9.9	2	10	0	0.0	1012.6	362	0.000	1.3
20260507 16:25	16.1	16.1	16.1	66	9.8	8	18	292	0.0	1012.7	576	0.000	1.5
20260507 16:30	16.1	16.1	16.1	66	9.7	8	18	292	0.0	1012.7	573	0.000	1.5
20260507 16:35	16.2	16.2	16.2	67	10.0	5	16	292	0.0	1012.7	321	0.000	1.3
20260507 16:40	16.3	16.3	16.3	67	10.1	3	8	292	0.0	1012.6	326	0.000	1.2
20260507 16:45	16.4	16.4	16.4	66	10.0	2	8	0	0.0	1012.6	251	0.000	0.8
20260507 16:50	16.3	16.3	16.3	67	10.1	6	16	292	0.0	1012.6	648	0.000	1.2
20260507 16:55	17.2	17.2	17.2	67	11.0	3	8	270	0.0	1012.4	754	0.000	1.4
20260507 17:00	17.3	17.3	17.3	64	10.4	5	14	338	0.0	1012.5	651	0.279	1.4
20260507 17:05	17.3	17.3	17.3	65	10.7	2	11	338	0.0	1012.4	446	0.000	1.1
20260507 17:10	17.3	17.3	17.3	65	10.7	2	6	248	0.0	1012.4	273	0.000	0.9
20260507 17:15	17.4	17.4	17.4	63	10.3	2	8	338	0.0	1012.5	345	0.000	0.9
20260507 17:20	16.7	16.7	16.7	65	10.1	2	8	22	0.0	1012.7	210	0.000	0.7
20260507 17:25	16.5	16.5	16.5	65	9.9	2	8	315	0.0	1012.7	153	0.000	0.5
20260507 17:30	15.9	15.9	15.9	66	9.5	3	6	292	0.0	1012.7	158	0.000	0.5
20260507 17:35	15.6	15.6	15.6	67	9.4	2	6	292	0.0	1012.9	147	0.000	0.5
20260507 17:40	15.5	15.5	15.5	69	9.8	2	8	270	0.0	1012.9	130	0.000	0.0
20260507 17:45	15.5	15.5	15.5	68	9.6	2	10	0	0.0	1013.0	163	0.000	0.0
20260507 17:50	15.3	15.3	15.3	69	9.7	3	11	0	0.0	1012.9	267	0.000	0.6
20260507 17:55	15.2	15.2	15.2	67	9.1	5	10	0	0.0	1012.8	265	0.000	0.6
20260507 18:00	15.0	15.0	15.0	68	9.1	5	11	0	0.0	1012.8	168	0.127	0.5
20260507 18:05	15.1	15.1	15.1	68	9.2	2	8	22	0.0	1012.7	132	0.000	0.0
20260507 18:10	14.9	14.9	14.9	68	9.0	5	10	0	0.0	1012.7	178	0.000	0.0
20260507 18:15	14.9	14.9	14.9	69	9.2	2	10	0	0.0	1012.7	141	0.000	0.0
20260507 18:20	14.9	14.9	14.9	67	8.9	3	10	0	0.0	1012.8	117	0.000	0.0
20260507 18:25	14.9	14.9	14.9	68	9.0	2	10	292	0.0	1012.9	76	0.000	0.0
20260507 18:30	14.9	14.9	14.9	69	9.3	2	3	315	0.0	1012.9	64	0.000	0.0
20260507 18:35	14.9	14.9	14.9	69	9.3	2	8	292	0.0	1012.9	72	0.000	0.0
20260507 18:40	14.8	14.8	14.8	69	9.1	3	10	0	0.0	1012.9	78	0.000	0.0
20260507 18:45	14.8	14.8	14.8	70	9.4	2	8	338	0.0	1012.8	78	0.000	0.0
20260507 18:50	14.8	14.8	14.8	71	9.6	3	11	292	0.0	1012.8	74	0.000	0.0
20260507 18:55	14.8	14.8	14.8	70	9.4	2	6	315	0.0	1012.9	55	0.000	0.0
20260507 19:00	14.8	14.8	14.8	70	9.4	0	10	0	0.0	1013.0	35	0.051	0.0
20260507 19:05	14.6	14.6	14.6	70	9.2	2	5	292	0.0	1013.0	29	0.000	0.0
20260507 19:10	14.6	14.6	14.6	71	9.4	0	2	315	0.0	1013.1	37	0.000	0.0
20260507 19:15	14.6	14.6	14.6	70	9.1	2	8	292	0.0	1013.1	43	0.000	0.0
20260507 19:20	14.5	14.5	14.5	71	9.3	0	6	292	0.0	1013.1	52	0.000	0.0
20260507 19:25	14.4	14.4	14.4	71	9.2	3	11	0	0.0	1013.2	55	0.000	0.0
20260507 19:30	14.3	14.3	14.3	72	9.3	3	8	0	0.0	1013.2	75	0.000	0.0
20260507 19:35	14.4	14.4	14.4	72	9.4	3	8	0	0.0	1013.3	88	0.000	0.0
20260507 19:40	14.4	14.4	14.4	72	9.5	3	14	0	0.0	1013.3	77	0.000	0.0
20260507 19:45	14.2	14.2	14.2	71	9.0	5	11	0	0.0	1013.3	46	0.000	0.0
20260507 19:50	14.0	14.0	14.0	72	9.0	3	10	0	0.0	1013.4	36	0.000	0.0
20260507 19:55	13.8	13.8	13.8	73	9.1	6	14	0	0.0	1013.4	30	0.000	0.0
20260507 20:00	13.7	13.7	13.7	73	8.9	5	14	0	0.0	1013.5	21	0.051	0.0
20260507 20:05	13.4	13.4	13.4	75	9.1	6	14	0	0.0	1013.5	19	0.000	0.0
20260507 20:10	13.1	13.1	13.1	75	8.8	10	18	0	0.0	1013.7	14	0.000	0.0
20260507 20:15	12.9	12.9	12.9	76	8.8	8	14	0	0.0	1013.8	12	0.000	0.0
20260507 20:20	12.8	12.8	12.8	76	8.7	6	13	0	0.0	1013.9	9	0.000	0.0
20260507 20:25	12.6	12.6	12.6	77	8.6	5	10	22	0.0	1014.1	6	0.000	0.0
20260507 20:30	12.4	12.4	12.4	77	8.5	3	6	45	0.0	1014.3	3	0.000	0.0
20260507 20:35	12.3	12.3	12.3	77	8.4	3	6	22	0.0	1014.3	0	0.000	0.0
20260507 20:40	12.2	12.2	12.2	78	8.5	2	6	45	0.0	1014.3	0	0.000	0.0
20260507 20:45	12.2	12.2	12.2	78	8.5	3	6	22	0.0	1014.4	0	0.000	0.0
20260507 20:50	12.2	12.2	12.2	78	8.5	5	10	22	0.0	1014.3	0	0.000	0.0
20260507 20:55	12.2	12.2	12.2	78	8.5	3	10	22	0.0	1014.3	0	0.000	0.0
20260507 21:00	12.2	12.2	12.2	78	8.4	3	8	22	0.0	1014.5	0	0.025	0.0
20260507 21:05	12.2	12.2	12.2	78	8.4	3	5	22	0.0	1014.4	0	0.000	0.0
20260507 21:10	12.1	12.1	12.1	78	8.4	2	5	45	0.0	1014.4	0	0.000	0.0
20260507 21:15	12.2	12.2	12.2	78	8.4	0	3	45	0.0	1014.6	0	0.000	0.0
20260507 21:20	12.1	12.1	12.1	79	8.6	0	3	45	0.0	1014.6	0	0.000	0.0
20260507 21:25	12.1	12.1	12.1	79	8.6	0	2	45	0.0	1014.7	0	0.000	0.0
20260507 21:30	12.1	12.1	12.1	79	8.5	0	3	45	0.0	1014.6	0	0.000	0.0
20260507 21:35	11.9	11.9	11.9	79	8.4	2	5	45	0.0	1014.6	0	0.000	0.0
20260507 21:40	11.8	11.8	11.8	79	8.3	2	3	45	0.0	1014.8	0	0.000	0.0
20260507 21:45	11.8	11.8	11.8	79	8.3	2	5	22	0.0	1014.9	0	0.000	0.0
20260507 21:50	11.7	11.7	11.7	79	8.2	0	3	22	0.0	1014.9	0	0.000	0.0
20260507 21:55	11.7	11.7	11.7	80	8.3	0	0	-100000	0.0	1015.0	0	0.000	0.0
20260507 22:00	11.6	11.6	11.6	80	8.2	0	0	-100000	0.0	1014.9	0	0.025	0.0
20260507 22:05	11.4	11.4	11.4	80	8.1	0	0	-100000	0.0	1014.9	0	0.000	0.0
20260507 22:10	11.3	11.3	11.3	81	8.2	0	0	-100000	0.0	1015.1	0	0.000	0.0
20260507 22:15	11.3	11.3	11.3	81	8.1	0	0	-100000	0.0	1015.1	0	0.000	0.0
20260507 22:20	11.2	11.2	11.2	81	8.0	0	0	-100000	0.0	1015.2	0	0.000	0.0
20260507 22:25	11.1	11.1	11.1	82	8.1	0	0	-100000	0.0	1015.2	0	0.000	0.0
20260507 22:30	11.0	11.0	11.0	82	8.0	0	0	-100000	0.0	1015.3	0	0.000	0.0
20260507 22:35	10.9	10.9	10.9	82	7.9	0	0	-100000	0.0	1015.3	0	0.000	0.0
20260507 22:40	10.8	10.8	10.8	82	7.9	0	0	-100000	0.0	1015.3	0	0.000	0.0
20260507 22:45	10.8	10.8	10.8	83	8.1	0	0	-100000	0.0	1015.4	0	0.000	0.0
20260507 22:50	10.9	10.9	10.9	83	8.2	0	0	-100000	0.0	1015.4	0	0.000	0.0
20260507 22:55	11.0	11.0	11.0	83	8.2	0	0	-100000	0.0	1015.5	0	0.000	0.0
20260507 23:00	11.0	11.0	11.0	83	8.2	0	0	-100000	0.0	1015.5	0	0.025	0.0
20260507 23:05	11.1	11.1	11.1	83	8.3	0	0	-100000	0.0	1015.5	0	0.000	0.0
20260507 23:10	11.1	11.1	11.1	83	8.3	0	0	-100000	0.0	1015.5	0	0.000	0.0
20260507 23:15	11.1	11.1	11.1	83	8.3	0	0	-100000	0.0	1015.5	0	0.000	0.0
20260507 23:20	11.1	11.1	11.1	83	8.3	0	0	-100000	0.0	1015.5	0	0.000	0.0
20260507 23:25	11.1	11.1	11.1	82	8.2	0	0	-100000	0.0	1015.6	0	0.000	0.0
20260507 23:30	11.1	11.1	11.1	82	8.2	0	0	-100000	0.0	1015.5	0	0.000	0.0
20260507 23:35	11.1	11.1	11.1	82	8.1	0	0	-100000	0.0	1015.5	0	0.000	0.0
20260507 23:40	11.0	11.0	11.0	83	8.2	0	0	-100000	0.0	1015.6	0	0.000	0.0
20260507 23:45	10.9	10.9	10.9	83	8.2	0	0	-100000	0.0	1015.5	0	0.000	0.0
20260507 23:50	10.8	10.8	10.8	83	8.1	0	0	-100000	0.0	1015.6	0	0.000	0.0
20260507 23:55	10.7	10.7	10.7	83	7.9	0	0	-100000	0.0	1015.6	0	0.000	0.0



Please note the license to use and transfer of this data:
https://creativecommons.org/licenses/by-nc-sa/3.0/deed.en

Bitte beachten sie die Lizenz zur Verwertung und Weitergabe der Daten:
https://creativecommons.org/licenses/by-nc-sa/3.0/deed.de

zurück zur Übersicht der Archivdaten (Monats und Tagesdaten)